Bunker Hill, West Virginia
Current Conditions -  °F | °C
As of 6:53 AM on Sunday 25 Jan 2015 (Local Time) from KMRB Reporting Station
Overcast Overcast  
Wind Chill: 35°   Ceiling: 3400
Heat Index: 39°   Visibility: 10mi
Dew Point: 28°   Wind: 6mph
Humidity: 65%   Direction: 180°S
Pressure: 29.78"   Gusts: NA
Location:  39.33°N, 78.05°W
Report Text: KMRB 251153Z AUTO 18005KT 10SM BKN034 OVC045 04/M02 A2978 RMK AO2 SLP088 70003 T00391022 10039 20028 53021 TSNO
Loading
Personal Weather Stations






























Interactive Weather Map New forecast layout! Learn more

10-Day Weather Forecast

Advertisements
Track Severe Weather on mobile